Winnetoon, Nebraska
Current Conditions -  °F | °C
As of 6:55 AM on Wednesday 26 Nov 2014 (Local Time) from KONL Reporting Station
Haze Haze  
Wind Chill:   Ceiling: 400
Heat Index: 24°   Visibility: 5mi
Dew Point: 23°   Wind: 28mph
Humidity: 96%   Direction: 320°NW
Pressure: 30.08"   Gusts: 33mph
Location:  42.51°N, 97.96°W
Report Text: KONL 261255Z AUTO 32024G29KT 5SM BR OVC004 M04/M05 A3008 RMK AO2 T10431048
Loading
Personal Weather Stations






























Interactive Weather Map New forecast layout! Learn more

10-Day Weather Forecast

Advertisements
Track Severe Weather on mobile